Time;durP1;ratioP1;P1;durP2;ratioP2;P2;SDS_P1;SDS_P2;PMS_P1;PMS_P2;Temp;Humidity;BMP_temperature;BMP_pressure;BME280_temperature;BME280_humidity;BME280_pressure;Samples;Min_cycle;Max_cycle;Signal;HPM_P1;HPM_P2
2023/09/17 00:01:35;;;;;;;7.03;6.30;;;;;;;25.30;67.42;101316.50;4999071;28;20055;-58
2023/09/17 00:04:03;;;;;;;7.03;6.03;;;;;;;25.31;67.48;101320.06;4999021;28;20408;-58
2023/09/17 00:06:31;;;;;;;6.63;5.85;;;;;;;25.29;67.37;101312.09;5002288;28;20041;-58
2023/09/17 00:08:59;;;;;;;6.68;6.07;;;;;;;25.30;67.42;101312.94;5000164;28;20054;-58
2023/09/17 00:11:26;;;;;;;7.03;6.32;;;;;;;25.31;67.31;101314.63;5002499;28;20042;-58
2023/09/17 00:13:54;;;;;;;6.82;6.18;;;;;;;25.31;67.22;101320.91;5003021;28;20047;-58
2023/09/17 00:16:21;;;;;;;7.93;6.53;;;;;;;25.31;67.11;101328.19;5011792;28;20408;-58
2023/09/17 00:18:49;;;;;;;6.85;6.15;;;;;;;25.30;67.12;101327.34;5008186;28;20050;-58
2023/09/17 00:21:16;;;;;;;6.18;5.57;;;;;;;25.31;67.36;101328.19;5009968;28;20049;-58
2023/09/17 00:23:44;;;;;;;6.55;5.85;;;;;;;25.31;67.32;101320.06;5005656;28;20049;-58
2023/09/17 00:26:11;;;;;;;6.60;5.95;;;;;;;25.31;67.23;101325.47;5006294;28;20050;-58
2023/09/17 00:28:41;;;;;;;7.53;6.82;;;;;;;25.31;67.12;101315.47;5002397;28;20065;-61
2023/09/17 00:31:09;;;;;;;7.28;6.47;;;;;;;25.31;66.89;101320.06;5001909;28;20057;-61
2023/09/17 00:33:37;;;;;;;6.28;5.68;;;;;;;25.30;67.24;101319.22;4994221;28;20058;-61
2023/09/17 00:36:04;;;;;;;7.35;6.57;;;;;;;25.31;67.07;101317.34;4986608;28;20049;-61
2023/09/17 00:38:32;;;;;;;7.60;5.97;;;;;;;25.31;67.19;101314.63;4996783;28;20050;-61
2023/09/17 00:41:00;;;;;;;6.38;5.78;;;;;;;25.32;66.94;101321.75;5002334;28;20039;-61
2023/09/17 00:43:28;;;;;;;6.22;5.63;;;;;;;25.31;66.98;101310.06;5001722;28;20054;-61
2023/09/17 00:45:56;;;;;;;6.63;5.38;;;;;;;25.31;66.99;101312.78;5003812;28;20073;-61
2023/09/17 00:48:26;;;;;;;6.40;5.80;;;;;;;25.32;67.15;101316.31;5002159;28;20049;-58
2023/09/17 00:50:55;;;;;;;7.00;6.30;;;;;;;25.31;66.78;101314.63;5000683;28;20058;-58
2023/09/17 00:53:24;;;;;;;6.10;5.50;;;;;;;25.32;66.71;101313.63;5003623;28;20042;-58
2023/09/17 00:55:52;;;;;;;6.07;5.50;;;;;;;25.32;66.83;101311.78;5004765;28;20049;-58
2023/09/17 00:58:21;;;;;;;6.88;6.18;;;;;;;25.32;66.61;101313.63;5000307;28;20050;-58
2023/09/17 01:00:48;;;;;;;7.22;6.53;;;;;;;25.32;66.59;101311.78;4999988;28;20066;-58
2023/09/17 01:03:16;;;;;;;6.47;5.85;;;;;;;25.32;66.52;101308.19;5002227;28;20053;-58
2023/09/17 01:05:45;;;;;;;6.72;6.05;;;;;;;25.32;66.53;101308.19;5002687;28;20050;-58
2023/09/17 01:08:13;;;;;;;6.60;5.45;;;;;;;25.32;66.71;101303.66;5015946;28;20051;-61
2023/09/17 01:10:41;;;;;;;7.25;6.55;;;;;;;25.32;66.70;101300.06;4995108;28;20054;-61
2023/09/17 01:13:09;;;;;;;6.57;5.88;;;;;;;25.32;66.66;101303.66;5002559;28;20057;-61
2023/09/17 01:15:38;;;;;;;6.32;5.65;;;;;;;25.32;66.61;101309.06;5003777;28;20045;-61
2023/09/17 01:18:09;;;;;;;7.78;6.43;;;;;;;25.32;66.29;101306.38;5001300;28;20066;-59
2023/09/17 01:20:52;;;;;;;7.63;6.82;;;;;;;25.31;66.28;101307.34;4998937;28;20054;-61
2023/09/17 01:23:32;;;;;;;7.00;6.30;;;;;;;25.31;66.29;101301.09;5001775;28;20049;-61
2023/09/17 01:26:24;;;;;;;6.95;6.25;;;;;;;25.31;66.21;101296.50;5001177;28;20046;-61
2023/09/17 01:28:54;;;;;;;7.00;6.30;;;;;;;25.32;65.91;101308.19;5003758;28;20504;-61
2023/09/17 01:31:23;;;;;;;7.03;6.32;;;;;;;25.32;66.12;101303.66;5017142;28;20054;-61
2023/09/17 01:33:51;;;;;;;7.50;6.80;;;;;;;25.30;65.77;101294.81;5000778;28;20046;-61
2023/09/17 01:36:22;;;;;;;6.85;6.22;;;;;;;25.32;65.95;101305.50;4976769;28;20050;-61
2023/09/17 01:39:04;;;;;;;7.40;6.68;;;;;;;25.32;65.83;101300.06;5004043;28;20053;-61
2023/09/17 01:41:36;;;;;;;6.75;6.05;;;;;;;25.32;65.74;101308.19;4995735;28;20434;-61
2023/09/17 01:44:06;;;;;;;7.70;6.43;;;;;;;25.31;65.69;101304.66;4999321;28;20050;-61
2023/09/17 01:46:37;;;;;;;7.07;6.38;;;;;;;25.31;65.73;101304.66;5003178;28;20046;-61
2023/09/17 01:49:10;;;;;;;6.32;5.50;;;;;;;25.33;65.84;101304.50;5002356;28;20046;-61
2023/09/17 01:51:38;;;;;;;7.00;6.22;;;;;;;25.32;65.87;101306.38;4999123;28;20050;-61
2023/09/17 01:54:06;;;;;;;7.65;6.85;;;;;;;25.32;65.78;101305.50;4999312;28;20057;-61
2023/09/17 01:56:41;;;;;;;7.38;6.63;;;;;;;25.31;65.64;101304.66;5000215;28;20049;-61
2023/09/17 01:59:09;;;;;;;7.63;6.85;;;;;;;25.31;65.82;101298.38;4992847;28;20054;-58
2023/09/17 02:01:37;;;;;;;8.30;6.97;;;;;;;25.32;65.91;101303.66;4999107;28;20058;-58
2023/09/17 02:04:05;;;;;;;8.98;8.10;;;;;;;25.31;65.95;101299.22;4999587;28;20050;-58
2023/09/17 02:06:32;;;;;;;8.65;7.50;;;;;;;25.32;65.85;101303.66;5018523;28;20045;-58
2023/09/17 02:09:00;;;;;;;8.45;7.10;;;;;;;25.31;65.87;101293.81;4994869;28;20053;-61
2023/09/17 02:11:28;;;;;;;8.40;7.50;;;;;;;25.32;65.81;101300.06;4998805;28;20500;-61
2023/09/17 02:13:55;;;;;;;8.80;7.90;;;;;;;25.32;65.85;101294.66;4999687;28;20051;-61
2023/09/17 02:16:23;;;;;;;8.38;7.47;;;;;;;25.32;66.05;101300.94;5008482;28;20046;-61
2023/09/17 02:18:54;;;;;;;9.88;7.35;;;;;;;25.31;66.05;101295.66;4998623;28;20054;-58
2023/09/17 02:21:22;;;;;;;8.07;7.28;;;;;;;25.33;66.33;101302.63;5006204;28;20070;-58
2023/09/17 02:23:50;;;;;;;7.35;6.65;;;;;;;25.31;66.18;101307.34;5006844;28;20060;-58
2023/09/17 02:26:18;;;;;;;8.65;7.82;;;;;;;25.33;66.08;101315.34;5007703;28;20052;-58
2023/09/17 02:28:45;;;;;;;8.65;7.85;;;;;;;25.33;66.07;101312.63;5005124;28;20053;-58
2023/09/17 02:31:13;;;;;;;9.95;8.85;;;;;;;25.32;65.96;101314.50;5006346;28;20050;-58
2023/09/17 02:33:41;;;;;;;8.98;8.05;;;;;;;25.32;65.86;101317.22;5005741;28;20072;-58
2023/09/17 02:36:08;;;;;;;9.15;8.25;;;;;;;25.32;66.07;101310.91;4991935;28;20038;-58
2023/09/17 02:38:36;;;;;;;9.38;8.48;;;;;;;25.32;66.06;101308.19;5004742;28;20046;-61
2023/09/17 02:41:04;;;;;;;9.60;8.70;;;;;;;25.32;65.82;101300.94;5000021;28;20053;-61
2023/09/17 02:43:31;;;;;;;9.60;8.65;;;;;;;25.32;66.10;101298.25;5001482;28;20057;-61
2023/09/17 02:45:58;;;;;;;10.57;9.35;;;;;;;25.32;65.91;101289.22;5002268;28;20042;-61
2023/09/17 02:48:26;;;;;;;10.30;9.05;;;;;;;25.32;65.88;101297.34;5000215;28;20051;-58
2023/09/17 02:50:53;;;;;;;9.38;8.43;;;;;;;25.32;66.03;101298.25;4998249;28;20050;-58
2023/09/17 02:53:21;;;;;;;9.32;8.15;;;;;;;25.33;65.87;101296.38;5001321;28;20045;-58
2023/09/17 02:55:48;;;;;;;9.98;8.98;;;;;;;25.33;65.87;101301.78;5000562;28;20060;-58
2023/09/17 02:58:16;;;;;;;10.50;9.50;;;;;;;25.32;66.13;101297.34;4999593;28;20046;-61
2023/09/17 03:00:44;;;;;;;10.57;9.50;;;;;;;25.32;66.00;101295.53;4999308;28;20046;-61
2023/09/17 03:03:12;;;;;;;10.35;9.30;;;;;;;25.33;65.76;101293.66;5000206;28;20061;-61
2023/09/17 03:05:40;;;;;;;10.60;9.60;;;;;;;25.32;65.94;101294.66;5000470;28;20408;-61
2023/09/17 03:08:09;;;;;;;10.40;9.48;;;;;;;25.31;65.83;101288.38;4997755;28;20062;-60
2023/09/17 03:10:42;;;;;;;10.38;9.40;;;;;;;25.32;65.99;101287.41;4997973;28;20050;-61
2023/09/17 03:13:12;;;;;;;10.57;9.48;;;;;;;25.32;65.76;101291.94;5002394;28;20053;-61
2023/09/17 03:15:40;;;;;;;10.95;9.82;;;;;;;25.33;65.70;101293.66;4998964;28;20045;-61
2023/09/17 03:18:08;;;;;;;11.15;9.15;;;;;;;25.32;65.67;101291.94;4998304;28;20058;-61
2023/09/17 03:20:37;;;;;;;10.35;9.30;;;;;;;25.33;65.75;101290.94;4999065;28;20046;-61
2023/09/17 03:23:06;;;;;;;10.27;9.27;;;;;;;25.33;65.75;101285.53;5001510;28;20054;-61
2023/09/17 03:25:37;;;;;;;9.23;8.32;;;;;;;25.32;65.84;101289.22;4998168;28;20073;-61
2023/09/17 03:28:05;;;;;;;11.55;10.02;;;;;;;25.32;65.62;101287.41;4997587;28;20057;-59
2023/09/17 03:30:34;;;;;;;11.35;10.25;;;;;;;25.33;65.56;101290.94;4999441;28;20381;-58
2023/09/17 03:33:05;;;;;;;11.27;10.02;;;;;;;25.31;65.42;101299.22;5002899;28;20053;-58
2023/09/17 03:35:46;;;;;;;11.35;10.25;;;;;;;25.32;65.47;101297.34;4995629;28;20417;-58
2023/09/17 03:38:14;;;;;;;11.48;10.23;;;;;;;25.32;65.61;101306.38;4976104;28;20494;-59
2023/09/17 03:40:41;;;;;;;10.40;9.40;;;;;;;25.32;65.32;101303.66;5005236;28;20054;-58
2023/09/17 03:43:10;;;;;;;11.10;10.02;;;;;;;25.32;65.48;101302.78;5006245;28;20068;-58
2023/09/17 03:45:38;;;;;;;11.23;10.13;;;;;;;25.32;65.53;101305.50;5007686;28;20050;-58
2023/09/17 03:48:06;;;;;;;10.82;9.73;;;;;;;25.33;65.32;101309.91;5007075;28;20535;-61
2023/09/17 03:50:39;;;;;;;11.38;10.27;;;;;;;25.32;65.31;101300.06;5011002;28;20505;-58
2023/09/17 03:53:07;;;;;;;11.05;10.02;;;;;;;25.31;65.47;101304.66;5009899;28;20052;-58
2023/09/17 03:55:35;;;;;;;12.13;10.85;;;;;;;25.31;65.16;101301.94;4995284;28;20073;-58
2023/09/17 03:58:05;;;;;;;11.10;9.90;;;;;;;25.31;65.18;101303.78;5010829;28;20060;-61
2023/09/17 04:00:38;;;;;;;11.38;10.27;;;;;;;25.31;65.18;101293.81;5012480;28;20054;-61
2023/09/17 04:03:08;;;;;;;11.30;10.20;;;;;;;25.31;65.14;101303.78;5009669;28;20515;-61
2023/09/17 04:05:36;;;;;;;12.30;10.40;;;;;;;25.32;65.33;101306.38;5008851;28;20057;-61
2023/09/17 04:08:04;;;;;;;11.23;10.02;;;;;;;25.32;65.07;101305.50;5012515;28;20045;-60
2023/09/17 04:10:31;;;;;;;11.73;10.52;;;;;;;25.31;65.19;101299.22;5012942;28;20072;-61
2023/09/17 04:12:59;;;;;;;11.32;9.85;;;;;;;25.30;65.20;101297.53;5007543;28;20046;-61
2023/09/17 04:15:27;;;;;;;11.68;10.48;;;;;;;25.31;65.21;101301.94;5010655;28;20050;-61
2023/09/17 04:17:54;;;;;;;12.40;10.60;;;;;;;25.32;65.11;101305.50;5012924;28;20049;-61
2023/09/17 04:20:24;;;;;;;11.68;10.27;;;;;;;25.31;64.94;101309.22;5009977;28;20420;-58
2023/09/17 04:22:51;;;;;;;11.05;9.88;;;;;;;25.32;64.93;101316.31;5006815;28;20059;-58
2023/09/17 04:25:20;;;;;;;10.93;9.82;;;;;;;25.32;65.09;101321.75;5011332;28;20050;-63
2023/09/17 04:27:51;;;;;;;10.67;9.23;;;;;;;25.31;65.25;101309.22;5011100;28;20053;-63
2023/09/17 04:30:21;;;;;;;10.13;9.13;;;;;;;25.30;65.10;101312.94;5009370;28;20050;-64
2023/09/17 04:32:51;;;;;;;9.52;8.52;;;;;;;25.29;65.06;101316.66;5007289;28;20058;-65
2023/09/17 04:35:19;;;;;;;11.25;10.05;;;;;;;25.28;64.94;101325.78;5013239;28;20050;-64
2023/09/17 04:37:48;;;;;;;10.85;9.90;;;;;;;25.25;64.88;101310.72;4997596;28;20045;-64
2023/09/17 04:40:24;;;;;;;11.13;9.70;;;;;;;25.24;64.79;101322.56;4997878;28;20050;-62
2023/09/17 04:42:53;;;;;;;10.77;9.68;;;;;;;25.23;64.83;101323.56;5007715;28;20448;-62
2023/09/17 04:45:33;;;;;;;10.90;9.82;;;;;;;25.23;64.72;101328.13;5010460;28;20534;-62
2023/09/17 04:48:06;;;;;;;11.40;10.27;;;;;;;25.20;64.60;101331.16;5021367;28;20054;-63
2023/09/17 04:50:34;;;;;;;11.38;10.27;;;;;;;25.20;64.54;101328.44;5008491;28;20412;-64
2023/09/17 04:53:03;;;;;;;12.02;10.77;;;;;;;25.19;64.81;101337.59;5006692;28;20050;-64
2023/09/17 04:55:32;;;;;;;11.27;10.02;;;;;;;25.18;64.65;101344.88;5000169;28;20057;-63
2023/09/17 04:58:00;;;;;;;11.93;10.82;;;;;;;25.19;64.65;101351.13;5002521;28;20050;-63
2023/09/17 05:00:28;;;;;;;11.07;9.98;;;;;;;25.17;64.45;101347.75;4999916;28;20058;-63
2023/09/17 05:02:55;;;;;;;13.30;11.90;;;;;;;25.17;64.53;101345.03;4996497;28;20058;-64
2023/09/17 05:05:23;;;;;;;13.13;11.82;;;;;;;25.17;64.47;101355.88;5003969;28;20042;-64
2023/09/17 05:07:53;;;;;;;12.23;10.90;;;;;;;25.16;64.53;101357.75;5000069;28;20413;-64
2023/09/17 05:10:21;;;;;;;13.52;11.82;;;;;;;25.14;64.34;101359.75;4999907;28;20050;-62
2023/09/17 05:12:49;;;;;;;13.32;12.00;;;;;;;25.14;64.43;101357.88;5002054;28;20501;-62
2023/09/17 05:15:16;;;;;;;12.82;11.45;;;;;;;25.14;64.36;101354.31;5003389;28;20050;-63
2023/09/17 05:17:44;;;;;;;13.73;12.32;;;;;;;25.13;64.33;101358.06;4999800;28;20050;-64
2023/09/17 05:20:11;;;;;;;14.57;12.23;;;;;;;25.13;64.38;101353.47;4999933;28;20050;-62
2023/09/17 05:22:39;;;;;;;14.35;12.82;;;;;;;25.13;64.53;101356.19;5001787;28;20416;-62
2023/09/17 05:25:08;;;;;;;11.88;10.68;;;;;;;25.13;64.56;101353.47;5003037;28;20133;-62
2023/09/17 05:27:37;;;;;;;12.60;10.90;;;;;;;25.12;64.63;101354.50;4993970;28;20412;-62
2023/09/17 05:30:06;;;;;;;12.77;10.77;;;;;;;25.12;64.38;101351.78;4999122;28;20061;-64
2023/09/17 05:32:34;;;;;;;13.30;11.70;;;;;;;25.13;64.59;101360.75;5000216;28;20069;-63
2023/09/17 05:35:05;;;;;;;13.32;11.98;;;;;;;25.11;64.22;101363.59;5002498;28;20049;-64
2023/09/17 05:37:33;;;;;;;14.00;12.35;;;;;;;25.11;64.46;101369.03;5001116;28;20050;-64
2023/09/17 05:40:05;;;;;;;12.90;11.60;;;;;;;25.11;64.41;101374.44;4982654;28;20058;-62
2023/09/17 05:42:33;;;;;;;11.55;10.45;;;;;;;25.12;64.38;101373.47;5002072;28;20050;-62
2023/09/17 05:45:01;;;;;;;12.35;11.05;;;;;;;25.12;64.35;101378.88;5001589;28;20049;-62
2023/09/17 05:47:29;;;;;;;11.65;10.45;;;;;;;25.13;64.41;101375.16;5002131;28;20058;-62
2023/09/17 05:49:57;;;;;;;11.32;10.18;;;;;;;25.14;64.30;101378.72;5004077;28;20412;-63
2023/09/17 05:52:29;;;;;;;;;;;;;;;25.12;64.42;101380.75;5006158;28;20531;-63
2023/09/17 05:54:56;;;;;;;9.75;8.85;;;;;;;25.12;64.50;101378.88;5016878;28;19921;-64
2023/09/17 05:57:24;;;;;;;11.90;10.68;;;;;;;25.13;64.34;101371.59;5003715;28;20046;-64
2023/09/17 05:59:52;;;;;;;10.50;9.30;;;;;;;25.13;64.37;101371.59;5001347;28;20421;-62
2023/09/17 06:02:19;;;;;;;11.35;10.15;;;;;;;25.13;64.40;101374.31;5006143;28;20504;-65
2023/09/17 06:04:51;;;;;;;12.23;11.02;;;;;;;25.13;64.20;101383.28;5005031;28;20061;-64
2023/09/17 06:07:19;;;;;;;13.77;12.18;;;;;;;25.11;64.21;101377.16;5000342;28;20057;-63
2023/09/17 06:09:47;;;;;;;18.83;15.70;;;;;;;25.09;64.48;101381.03;5015587;28;20050;-61
2023/09/17 06:12:18;;;;;;;16.92;15.13;;;;;;;25.06;64.29;101381.31;5007141;28;20061;-61
2023/09/17 06:14:45;;;;;;;17.02;15.27;;;;;;;25.00;64.41;101377.38;5002114;28;20065;-61
2023/09/17 06:17:13;;;;;;;18.38;16.48;;;;;;;24.95;64.33;101379.69;5002160;28;20050;-61
2023/09/17 06:19:40;;;;;;;18.20;16.13;;;;;;;24.88;64.39;101376.78;5011787;28;20126;-61
2023/09/17 06:22:11;;;;;;;17.30;15.55;;;;;;;24.86;64.61;101375.22;5007197;28;20046;-61
2023/09/17 06:24:38;;;;;;;17.35;15.57;;;;;;;24.83;64.77;101375.50;5008820;28;20046;-61
2023/09/17 06:27:06;;;;;;;18.17;16.27;;;;;;;24.81;64.68;101372.13;5002000;28;20051;-63
2023/09/17 06:29:33;;;;;;;17.73;15.07;;;;;;;24.79;64.78;101379.53;5005583;28;20077;-64
2023/09/17 06:32:01;;;;;;;15.77;13.73;;;;;;;24.77;64.75;101377.00;5005137;28;20064;-65
2023/09/17 06:34:29;;;;;;;17.55;15.45;;;;;;;24.75;64.87;101381.69;4994354;28;20060;-63
2023/09/17 06:36:57;;;;;;;17.20;15.38;;;;;;;24.75;65.03;101378.16;5004799;28;20046;-63
2023/09/17 06:39:25;;;;;;;16.58;14.73;;;;;;;24.74;65.22;101393.53;4999755;28;20058;-64
2023/09/17 06:41:53;;;;;;;19.13;15.85;;;;;;;24.72;65.21;101392.00;4990732;28;20050;-64
2023/09/17 06:44:23;;;;;;;17.17;15.43;;;;;;;24.70;65.49;101402.97;5002476;28;20046;-65
2023/09/17 06:46:50;;;;;;;19.77;17.60;;;;;;;24.67;65.52;101404.16;5003200;28;20050;-64
2023/09/17 06:49:18;;;;;;;17.33;15.52;;;;;;;24.65;65.48;101403.44;5006215;28;20484;-60
2023/09/17 06:51:46;;;;;;;15.98;14.38;;;;;;;24.66;65.57;101407.00;5005902;28;20487;-61
2023/09/17 06:54:13;;;;;;;15.20;13.60;;;;;;;24.67;65.66;101393.31;4999141;28;20062;-61
2023/09/17 06:56:40;;;;;;;18.08;14.65;;;;;;;24.69;65.46;101395.03;4999459;28;20042;-61
2023/09/17 06:59:08;;;;;;;16.90;13.95;;;;;;;24.70;65.60;101399.44;5000772;28;20050;-66
2023/09/17 07:01:36;;;;;;;16.42;14.15;;;;;;;24.68;65.91;101394.19;5002364;28;20401;-66
2023/09/17 07:04:03;;;;;;;16.23;14.52;;;;;;;24.68;65.50;101405.00;4999415;28;20053;-66
2023/09/17 07:06:31;;;;;;;15.38;13.85;;;;;;;24.67;65.74;101396.03;4998823;28;20061;-66
2023/09/17 07:08:58;;;;;;;17.20;15.43;;;;;;;24.69;65.49;101400.44;5000708;28;20046;-61
2023/09/17 07:11:26;;;;;;;16.75;14.98;;;;;;;24.65;65.69;101399.88;5002511;28;20054;-61
2023/09/17 07:13:53;;;;;;;19.23;15.10;;;;;;;24.62;65.53;101406.44;4998839;28;20049;-61
2023/09/17 07:16:25;;;;;;;14.48;12.98;;;;;;;24.59;65.71;101406.78;4998918;28;20034;-61
2023/09/17 07:18:54;;;;;;;16.52;14.57;;;;;;;24.59;65.77;101412.19;5000032;28;20038;-64
2023/09/17 07:21:21;;;;;;;16.45;14.70;;;;;;;24.58;66.15;101410.47;5001242;28;20053;-66
2023/09/17 07:23:50;;;;;;;14.68;13.20;;;;;;;24.55;65.89;101399.97;4998899;28;20050;-66
2023/09/17 07:26:20;;;;;;;15.07;13.43;;;;;;;24.56;65.97;101407.06;4998560;28;20054;-66
2023/09/17 07:28:47;;;;;;;15.48;13.75;;;;;;;24.58;66.23;101407.75;5001818;28;20054;-65
2023/09/17 07:31:15;;;;;;;14.95;13.40;;;;;;;24.59;66.13;101412.19;5001042;28;20053;-66
2023/09/17 07:33:44;;;;;;;14.65;13.20;;;;;;;24.63;66.13;101420.84;5002023;28;20042;-66
2023/09/17 07:36:13;;;;;;;14.50;13.00;;;;;;;24.65;65.74;101422.41;4998247;28;20042;-66
2023/09/17 07:38:41;;;;;;;15.20;12.48;;;;;;;24.70;65.85;101424.63;5001779;28;20046;-64
2023/09/17 07:41:09;;;;;;;14.85;13.27;;;;;;;24.74;65.94;101428.75;4993139;28;20035;-64
2023/09/17 07:43:36;;;;;;;14.85;12.57;;;;;;;24.76;65.67;101421.34;4990152;28;20064;-64
2023/09/17 07:46:05;;;;;;;16.20;13.48;;;;;;;24.77;65.64;101424.88;5000415;28;20046;-63
2023/09/17 07:48:32;;;;;;;18.15;15.23;;;;;;;24.75;65.41;101426.88;5004901;28;20077;-61
2023/09/17 07:51:01;;;;;;;16.55;13.88;;;;;;;24.74;65.63;101426.03;5003001;28;20046;-62
2023/09/17 07:53:28;;;;;;;14.77;13.20;;;;;;;24.75;65.56;101437.72;5000910;28;20042;-63
2023/09/17 07:55:56;;;;;;;13.27;11.15;;;;;;;24.78;65.61;101438.25;5003572;28;20377;-62
2023/09/17 07:58:24;;;;;;;11.55;10.35;;;;;;;24.82;65.47;101442.38;5004848;28;20049;-66
2023/09/17 08:00:53;;;;;;;13.60;11.15;;;;;;;24.87;65.25;101445.50;5010692;28;20069;-65
2023/09/17 08:03:21;;;;;;;15.80;12.98;;;;;;;24.88;65.32;101441.78;4999989;28;20047;-65
2023/09/17 08:05:52;;;;;;;15.45;13.85;;;;;;;24.86;64.82;101446.47;5004011;28;20046;-64
2023/09/17 08:08:20;;;;;;;15.15;13.02;;;;;;;24.84;64.45;101445.78;5012617;28;20046;-65
2023/09/17 08:10:49;;;;;;;12.77;11.45;;;;;;;24.82;64.67;101445.06;5001528;28;20054;-67
2023/09/17 08:13:16;;;;;;;11.13;9.75;;;;;;;24.85;64.60;101449.34;5001467;28;20058;-66
2023/09/17 08:15:49;;;;;;;12.70;10.25;;;;;;;24.89;64.80;101446.19;5004276;28;20046;-63
2023/09/17 08:18:17;;;;;;;10.88;9.52;;;;;;;24.95;64.72;101447.41;5004593;28;20073;-63
2023/09/17 08:20:44;;;;;;;12.25;9.52;;;;;;;24.99;64.59;101447.94;5000911;28;20042;-64
2023/09/17 08:23:13;;;;;;;12.35;10.75;;;;;;;25.02;64.13;101450.34;5001277;28;20057;-64
2023/09/17 08:25:40;;;;;;;13.73;12.23;;;;;;;24.99;64.37;101450.66;4999809;28;20062;-64
2023/09/17 08:28:13;;;;;;;11.90;10.70;;;;;;;24.94;64.25;101447.56;5004137;28;20048;-63
2023/09/17 08:30:40;;;;;;;11.40;10.25;;;;;;;24.89;64.01;101439.91;5004029;28;20050;-63
2023/09/17 08:33:10;;;;;;;13.85;11.68;;;;;;;24.85;63.98;101430.38;5001720;28;20046;-63
2023/09/17 08:35:38;;;;;;;17.45;14.27;;;;;;;24.81;64.08;101435.25;5011696;28;20443;-62
2023/09/17 08:38:07;;;;;;;13.90;12.27;;;;;;;24.79;64.30;101431.84;5003859;28;20057;-63
2023/09/17 08:40:34;;;;;;;15.02;11.93;;;;;;;24.77;64.21;101430.31;5001699;28;20496;-63
2023/09/17 08:43:04;;;;;;;14.82;12.77;;;;;;;24.74;64.54;101433.31;4981616;28;20038;-63
2023/09/17 08:45:32;;;;;;;14.75;11.90;;;;;;;24.72;64.41;101432.63;5003861;28;20042;-61
2023/09/17 08:48:02;;;;;;;15.75;14.02;;;;;;;24.72;64.38;101436.19;5003667;28;20046;-64
2023/09/17 08:50:33;;;;;;;14.63;12.80;;;;;;;24.76;64.67;101442.16;5001583;28;20050;-63
2023/09/17 08:53:06;;;;;;;14.57;13.10;;;;;;;24.78;64.94;101438.25;5003525;28;20061;-69
2023/09/17 08:55:34;;;;;;;14.50;12.25;;;;;;;24.80;64.92;101436.28;5007666;28;20046;-68
2023/09/17 08:58:15;;;;;;;14.00;12.30;;;;;;;24.83;64.90;101443.22;5004264;28;20050;-65
2023/09/17 09:00:49;;;;;;;13.05;11.70;;;;;;;24.85;65.03;101435.81;5004701;28;20057;-63
2023/09/17 09:03:22;;;;;;;12.48;11.18;;;;;;;24.88;64.90;101443.63;5005076;28;20480;-63
2023/09/17 09:05:55;;;;;;;11.23;10.02;;;;;;;24.93;64.99;101444.00;5004134;28;20057;-62
2023/09/17 09:08:23;;;;;;;14.43;12.93;;;;;;;24.92;65.08;101435.03;5003806;28;20050;-62
2023/09/17 09:10:51;;;;;;;14.18;12.68;;;;;;;24.94;64.88;101442.16;5004079;28;20054;-63
2023/09/17 09:13:20;;;;;;;14.35;12.85;;;;;;;24.94;64.87;101434.03;5005948;28;20034;-59
2023/09/17 09:15:48;;;;;;;13.32;11.43;;;;;;;24.96;64.63;101426.63;5001628;28;20050;-62
2023/09/17 09:18:16;;;;;;;12.85;11.55;;;;;;;24.96;64.95;101430.16;5001602;28;20042;-64
2023/09/17 09:20:43;;;;;;;11.65;10.45;;;;;;;24.98;65.29;101433.56;4998474;28;20057;-64
2023/09/17 09:23:11;;;;;;;13.77;10.88;;;;;;;25.00;64.97;101417.16;4989332;28;20042;-64
2023/09/17 09:25:40;;;;;;;12.30;11.05;;;;;;;25.03;65.17;101425.81;5002004;28;20054;-64
2023/09/17 09:28:07;;;;;;;12.02;10.57;;;;;;;25.04;65.03;101430.25;5001789;28;20038;-63
2023/09/17 09:30:36;;;;;;;10.82;9.73;;;;;;;25.08;65.19;101433.50;5010654;28;20042;-62
2023/09/17 09:33:04;;;;;;;11.10;9.98;;;;;;;25.10;65.44;101429.66;5013509;28;20050;-60
2023/09/17 09:35:32;;;;;;;11.38;10.10;;;;;;;25.13;65.26;101431.19;5001563;28;20404;-60
2023/09/17 09:38:01;;;;;;;10.82;9.50;;;;;;;25.14;65.21;101420.19;5002846;28;20051;-60
2023/09/17 09:40:30;;;;;;;8.88;7.97;;;;;;;25.18;65.08;101425.31;5003584;28;20121;-60
2023/09/17 09:42:58;;;;;;;10.18;8.75;;;;;;;25.19;65.08;101422.44;5003185;28;20042;-60
2023/09/17 09:45:27;;;;;;;9.48;8.48;;;;;;;25.21;64.81;101419.59;5001190;28;20054;-60
2023/09/17 09:47:55;;;;;;;9.68;7.95;;;;;;;25.23;64.84;101421.13;5000841;28;20042;-60
2023/09/17 09:50:28;;;;;;;8.15;7.35;;;;;;;25.24;64.67;101421.97;5003566;28;20052;-60
2023/09/17 09:52:55;;;;;;;8.63;7.72;;;;;;;25.25;64.75;101427.25;5000421;28;20046;-60
2023/09/17 09:55:27;;;;;;;8.52;7.68;;;;;;;25.27;64.73;101418.94;5008289;28;20046;-60
2023/09/17 09:57:55;;;;;;;11.30;7.68;;;;;;;25.26;64.62;101419.97;5000560;28;20397;-59
2023/09/17 10:00:26;;;;;;;8.20;7.07;;;;;;;25.28;64.67;101431.47;5004509;28;20404;-61
2023/09/17 10:02:55;;;;;;;8.13;7.28;;;;;;;25.27;64.48;101430.63;5000820;28;20051;-60
2023/09/17 10:05:37;;;;;;;9.90;7.05;;;;;;;25.29;64.59;101430.50;5000114;28;20053;-61
2023/09/17 10:08:05;;;;;;;7.65;6.75;;;;;;;25.28;64.57;101418.81;5002974;28;20051;-60
2023/09/17 10:10:34;;;;;;;8.27;7.45;;;;;;;25.29;64.39;101414.22;5001760;28;20416;-60
2023/09/17 10:13:05;;;;;;;8.35;7.55;;;;;;;25.29;64.42;101406.09;5000072;28;20046;-60
2023/09/17 10:15:34;;;;;;;7.53;6.72;;;;;;;25.30;64.47;101416.78;4999966;28;20050;-60
2023/09/17 10:18:04;;;;;;;7.28;6.43;;;;;;;25.30;64.40;101405.09;5003589;28;20057;-61
2023/09/17 10:20:33;;;;;;;6.93;6.25;;;;;;;25.30;64.39;101402.38;5001075;28;20053;-60
2023/09/17 10:23:02;;;;;;;7.20;6.50;;;;;;;25.30;64.37;101396.97;4987311;28;20046;-60
2023/09/17 10:25:30;;;;;;;7.70;6.47;;;;;;;25.30;64.20;101394.25;4997101;28;20058;-60
2023/09/17 10:27:58;;;;;;;7.82;7.03;;;;;;;25.29;64.37;101398.81;5004404;28;20049;-60
2023/09/17 10:30:30;;;;;;;7.07;6.38;;;;;;;25.31;64.04;101395.94;4989668;28;20057;-61
2023/09/17 10:33:00;;;;;;;8.60;7.22;;;;;;;25.31;64.10;101393.22;5000675;28;20072;-61
2023/09/17 10:35:29;;;;;;;7.35;6.63;;;;;;;25.31;64.30;101390.53;5002552;28;20432;-61
2023/09/17 10:37:59;;;;;;;7.53;6.57;;;;;;;25.31;64.18;101393.22;5003241;28;20419;-61
2023/09/17 10:40:27;;;;;;;6.63;6.00;;;;;;;25.31;64.00;101401.34;5000756;28;20390;-60
2023/09/17 10:42:57;;;;;;;8.63;6.57;;;;;;;25.32;63.96;101395.81;5000364;28;20061;-60
2023/09/17 10:45:27;;;;;;;7.78;6.95;;;;;;;25.31;64.05;101399.50;5003101;28;20408;-60
2023/09/17 10:47:57;;;;;;;7.00;6.15;;;;;;;25.33;64.05;101402.06;5002043;28;20057;-61
2023/09/17 10:50:27;;;;;;;6.93;6.28;;;;;;;25.32;64.09;101406.66;5000627;28;20405;-60
2023/09/17 10:52:55;;;;;;;8.38;6.18;;;;;;;25.31;64.17;101399.50;4999200;28;20058;-60
2023/09/17 10:55:26;;;;;;;7.88;6.03;;;;;;;25.32;64.03;101393.09;5003472;28;20403;-61
2023/09/17 10:58:23;;;;;;;7.68;6.97;;;;;;;25.33;63.86;101385.81;5001289;28;20050;-61
2023/09/17 11:00:52;;;;;;;7.80;6.25;;;;;;;25.32;63.90;101384.97;4995570;28;20496;-60
2023/09/17 11:03:23;;;;;;;7.40;6.70;;;;;;;25.32;64.03;101392.22;5003658;28;20042;-60
2023/09/17 11:05:55;;;;;;;7.40;6.70;;;;;;;25.34;63.91;101391.06;5001317;28;20057;-60
2023/09/17 11:08:23;;;;;;;6.93;6.15;;;;;;;25.35;63.72;101397.31;5005578;28;20038;-60
2023/09/17 11:10:51;;;;;;;7.63;6.55;;;;;;;25.34;63.68;101395.63;5001633;28;20046;-60
2023/09/17 11:13:19;;;;;;;7.28;6.57;;;;;;;25.34;63.93;101390.22;5001879;28;20054;-60
2023/09/17 11:15:50;;;;;;;7.50;6.45;;;;;;;25.34;63.67;101388.34;5000033;28;20050;-60
2023/09/17 11:18:18;;;;;;;6.82;6.13;;;;;;;25.34;63.61;101392.91;4999766;28;20046;-61
2023/09/17 11:21:00;;;;;;;6.68;5.97;;;;;;;25.34;63.56;101391.06;5002062;28;20416;-61
2023/09/17 11:23:37;;;;;;;6.53;5.93;;;;;;;25.35;63.61;101389.19;4993414;28;20045;-61
2023/09/17 11:26:06;;;;;;;7.05;6.38;;;;;;;25.36;63.54;101385.47;4992337;28;20046;-61